createdAt,value
2023-10-20T00:00:09.022Z,94076.91
2023-10-20T00:02:36.947Z,94086.38
2023-10-20T00:05:07.299Z,94098.03
2023-10-20T00:07:35.054Z,94122.56
2023-10-20T00:10:04.818Z,94142.47
2023-10-20T00:12:32.706Z,94145.06
2023-10-20T00:15:00.502Z,94145.66
2023-10-20T00:17:29.163Z,94160.94
2023-10-20T00:19:56.966Z,94180.47
2023-10-20T00:22:26.209Z,94182.06
2023-10-20T00:24:54.057Z,94183.06
2023-10-20T00:27:21.847Z,94193.72
2023-10-20T00:29:49.596Z,94189.69
2023-10-20T00:32:17.467Z,94217.28
2023-10-20T00:34:45.202Z,94212.63
2023-10-20T00:37:13.025Z,94207.81
2023-10-20T00:39:42.208Z,94191.72
2023-10-20T00:42:10.400Z,94172.00
2023-10-20T00:44:38.231Z,94159.34
2023-10-20T00:47:06.172Z,94171.03
2023-10-20T00:49:34.468Z,94210.44
2023-10-20T00:52:03.437Z,94202.59
2023-10-20T00:54:32.319Z,94185.69
2023-10-20T00:57:02.550Z,94236.41
2023-10-20T00:59:30.373Z,94229.56
2023-10-20T01:01:58.176Z,94230.56
2023-10-20T01:04:26.011Z,94247.25
2023-10-20T01:06:54.355Z,94261.75
2023-10-20T01:09:26.313Z,94273.41
2023-10-20T01:11:54.687Z,94286.72
2023-10-20T01:14:24.218Z,94289.50
2023-10-20T01:16:52.099Z,94291.75
2023-10-20T01:19:19.864Z,94315.66
2023-10-20T01:21:48.109Z,94325.72
2023-10-20T01:24:17.276Z,94343.66
2023-10-20T01:26:45.278Z,94361.59
2023-10-20T01:29:13.936Z,94353.53
2023-10-20T01:31:41.797Z,94352.72
2023-10-20T01:34:09.615Z,94349.94
2023-10-20T01:36:38.468Z,94344.25
2023-10-20T01:39:06.761Z,94363.78
2023-10-20T01:41:36.152Z,94351.91
2023-10-20T01:44:04.223Z,94334.22
2023-10-20T01:46:32.043Z,94351.13
2023-10-20T01:48:59.901Z,94378.09
2023-10-20T01:51:27.731Z,94383.31
2023-10-20T01:53:56.779Z,94374.69
2023-10-20T01:56:25.143Z,94382.31
2023-10-20T01:58:54.409Z,94390.75
2023-10-20T02:01:24.398Z,94386.53
2023-10-20T02:03:52.447Z,94395.03
2023-10-20T02:06:20.384Z,94400.22
2023-10-20T02:08:48.235Z,94393.38
2023-10-20T02:11:16.364Z,94395.41
2023-10-20T02:13:44.906Z,94410.28
2023-10-20T02:16:14.453Z,94403.44
2023-10-20T02:18:42.322Z,94424.81
2023-10-20T02:21:11.000Z,94417.56
2023-10-20T02:23:40.291Z,94413.72
2023-10-20T02:26:09.579Z,94430.03
2023-10-20T02:28:38.279Z,94422.56
2023-10-20T02:31:15.215Z,94434.66
2023-10-20T02:33:43.323Z,94440.53
2023-10-20T02:36:11.173Z,94447.38
2023-10-20T02:38:39.053Z,94440.53
2023-10-20T02:41:06.809Z,94444.13
2023-10-20T02:43:34.551Z,94438.88
2023-10-20T02:46:02.363Z,94438.50
2023-10-20T02:48:31.583Z,94436.69
2023-10-20T02:50:59.788Z,94446.75
2023-10-20T02:53:27.547Z,94427.22
2023-10-20T02:55:55.352Z,94447.38
2023-10-20T02:58:23.421Z,94455.03
2023-10-20T03:00:52.773Z,94463.50
2023-10-20T03:03:20.737Z,94455.03
2023-10-20T03:05:50.070Z,94447.75
2023-10-20T03:08:18.577Z,94464.28
2023-10-20T03:10:46.385Z,94467.13
2023-10-20T03:13:14.547Z,94479.59
2023-10-20T03:15:42.377Z,94486.44
2023-10-20T03:18:10.273Z,94482.81
2023-10-20T03:20:38.111Z,94491.50
2023-10-20T03:23:07.577Z,94499.16
2023-10-20T03:25:35.500Z,94519.28
2023-10-20T03:28:04.270Z,94533.38
2023-10-20T03:30:32.918Z,94558.97
2023-10-20T03:33:02.578Z,94541.84
2023-10-20T03:35:30.399Z,94560.63
2023-10-20T03:37:59.972Z,94543.66
2023-10-20T03:40:32.091Z,94548.91
2023-10-20T03:43:00.295Z,94549.72
2023-10-20T03:45:28.937Z,94540.44
2023-10-20T03:47:56.818Z,94532.78
2023-10-20T03:50:24.743Z,94533.59
2023-10-20T03:52:52.496Z,94534.38
2023-10-20T03:55:22.942Z,94532.41
2023-10-20T03:57:51.998Z,94528.34
2023-10-20T04:00:24.100Z,94537.22
2023-10-20T04:02:53.119Z,94533.59
2023-10-20T04:05:21.108Z,94537.22
2023-10-20T04:07:49.195Z,94543.66
2023-10-20T04:10:19.567Z,94552.13
2023-10-20T04:12:48.313Z,94567.47
2023-10-20T04:15:18.250Z,94582.78
2023-10-20T04:17:47.036Z,94572.72
2023-10-20T04:20:20.713Z,94552.13
2023-10-20T04:22:51.443Z,94553.13
2023-10-20T04:25:20.113Z,94558.97
2023-10-20T04:27:51.069Z,94570.69
2023-10-20T04:30:38.493Z,94586.00
2023-10-20T04:33:25.166Z,94582.38
2023-10-20T04:36:11.086Z,94606.56
2023-10-20T04:38:56.683Z,94607.38
2023-10-20T04:41:43.093Z,94605.78
2023-10-20T04:44:28.421Z,94598.91
2023-10-20T04:47:14.521Z,94584.41
2023-10-20T04:50:10.620Z,94600.75
2023-10-20T04:52:55.752Z,94596.50
2023-10-20T04:55:41.318Z,94587.63
2023-10-20T04:58:14.037Z,94581.19
2023-10-20T05:00:43.426Z,94595.69
2023-10-20T05:03:24.300Z,94586.00
2023-10-20T05:06:06.570Z,94582.78
2023-10-20T05:08:34.416Z,94583.81
2023-10-20T05:11:02.180Z,94555.75
2023-10-20T05:13:29.935Z,94546.50
2023-10-20T05:15:57.770Z,94539.25
2023-10-20T05:18:27.076Z,94508.63
2023-10-20T05:20:56.331Z,94479.81
2023-10-20T05:23:24.502Z,94459.84
2023-10-20T05:25:52.274Z,94458.25
2023-10-20T05:28:20.050Z,94434.28
2023-10-20T05:30:48.105Z,94392.19
2023-10-20T05:33:16.660Z,94341.06
2023-10-20T05:35:46.050Z,94286.34
2023-10-20T05:38:13.913Z,94268.41
2023-10-20T05:40:41.659Z,94267.84
2023-10-20T05:43:09.715Z,94239.25
2023-10-20T05:45:41.234Z,94205.25
2023-10-20T05:48:10.643Z,94176.91
2023-10-20T05:50:39.903Z,94169.06
2023-10-20T05:53:09.683Z,94187.75
2023-10-20T05:55:38.114Z,94207.06
2023-10-20T05:58:07.337Z,94226.38
2023-10-20T06:00:45.928Z,94254.16
2023-10-20T06:03:26.010Z,94246.69
2023-10-20T06:05:54.040Z,94266.22
2023-10-20T06:08:23.218Z,94269.44
2023-10-20T06:10:51.840Z,94301.63
2023-10-20T06:13:19.665Z,94321.75
2023-10-20T06:15:48.222Z,94358.81
2023-10-20T06:18:25.179Z,94380.94
2023-10-20T06:20:57.208Z,94378.31
2023-10-20T06:23:26.408Z,94354.53
2023-10-20T06:25:54.223Z,94358.81
2023-10-20T06:28:21.960Z,94378.31
2023-10-20T06:30:51.505Z,94402.47
2023-10-20T06:33:19.861Z,94411.13
2023-10-20T06:36:03.766Z,94431.25
2023-10-20T06:38:36.383Z,94461.06
2023-10-20T06:41:05.171Z,94468.34
2023-10-20T06:43:32.902Z,94518.31
2023-10-20T06:46:02.405Z,94530.78
2023-10-20T06:48:30.958Z,94538.06
2023-10-20T06:50:59.949Z,94556.97
2023-10-20T06:53:29.793Z,94578.34
2023-10-20T06:56:14.473Z,94614.66
2023-10-20T06:58:44.611Z,94630.38
2023-10-20T07:01:12.490Z,94591.66
2023-10-20T07:03:40.401Z,94546.31
2023-10-20T07:06:10.402Z,94525.97
2023-10-20T07:08:38.332Z,94528.59
2023-10-20T07:11:07.992Z,94548.72
2023-10-20T07:13:35.982Z,94564.63
2023-10-20T07:16:03.874Z,94557.19
2023-10-20T07:18:31.854Z,94555.56
2023-10-20T07:20:59.773Z,94574.13
2023-10-20T07:23:27.745Z,94589.25
2023-10-20T07:25:55.725Z,94612.25
2023-10-20T07:28:24.922Z,94771.78
2023-10-20T07:30:55.103Z,94913.72
2023-10-20T07:33:23.342Z,94901.19
2023-10-20T07:35:51.195Z,94873.53
2023-10-20T07:38:19.617Z,94858.19
2023-10-20T07:40:47.437Z,94862.44
2023-10-20T07:43:15.233Z,94883.63
2023-10-20T07:45:45.093Z,94876.16
2023-10-20T07:48:13.060Z,94838.81
2023-10-20T07:50:43.319Z,94849.09
2023-10-20T07:53:12.071Z,94853.13
2023-10-20T07:55:39.969Z,94805.09
2023-10-20T07:58:10.294Z,94781.25
2023-10-20T08:00:38.322Z,94784.91
2023-10-20T08:03:10.032Z,94771.97
2023-10-20T08:05:38.617Z,94836.59
2023-10-20T08:08:07.457Z,94867.47
2023-10-20T08:10:35.937Z,94825.28
2023-10-20T08:13:04.193Z,94808.31
2023-10-20T08:15:32.061Z,94849.09
2023-10-20T08:18:00.086Z,94833.75
2023-10-20T08:20:30.831Z,94866.06
2023-10-20T08:22:58.974Z,94902.19
2023-10-20T08:25:26.810Z,94971.69
2023-10-20T08:27:54.606Z,95160.34
2023-10-20T08:30:22.712Z,95405.69
2023-10-20T08:32:50.528Z,95469.28
2023-10-20T08:35:18.564Z,95342.06
2023-10-20T08:37:47.981Z,95241.03
2023-10-20T08:40:16.435Z,95142.91
2023-10-20T08:42:44.515Z,95069.34
2023-10-20T08:45:14.626Z,95094.59
2023-10-20T08:47:43.805Z,95167.63
2023-10-20T08:50:13.062Z,95141.09
2023-10-20T08:52:41.324Z,95186.81
2023-10-20T08:55:10.741Z,95221.81
2023-10-20T08:57:39.032Z,95221.81
2023-10-20T09:00:09.209Z,95177.72
2023-10-20T09:02:40.203Z,95110.78
2023-10-20T09:05:08.904Z,95137.25
2023-10-20T09:07:39.122Z,95199.56
2023-10-20T09:10:08.076Z,95219.19
2023-10-20T09:12:37.274Z,95170.25
2023-10-20T09:15:05.814Z,95139.69
2023-10-20T09:17:35.253Z,95119.25
2023-10-20T09:20:08.499Z,95114.59
2023-10-20T09:22:37.863Z,95118.25
2023-10-20T09:25:09.001Z,95122.50
2023-10-20T09:27:38.946Z,95125.94
2023-10-20T09:30:11.926Z,95186.03
2023-10-20T09:32:40.242Z,95233.97
2023-10-20T09:35:09.262Z,95253.78
2023-10-20T09:37:38.136Z,95520.56
2023-10-20T09:40:08.097Z,95795.91
2023-10-20T09:42:52.936Z,96104.03
2023-10-20T09:45:30.453Z,96081.25
2023-10-20T09:48:02.771Z,96087.16
2023-10-20T09:50:32.984Z,95935.03
2023-10-20T09:53:01.995Z,95743.50
2023-10-20T09:55:30.368Z,95655.84
2023-10-20T09:58:02.132Z,95551.38
2023-10-20T10:00:34.376Z,95580.97
2023-10-20T10:03:04.218Z,95552.38
2023-10-20T10:05:32.310Z,95522.41
2023-10-20T10:08:08.804Z,95464.81
2023-10-20T10:10:37.083Z,95512.88
2023-10-20T10:13:07.160Z,95491.97
2023-10-20T10:15:40.246Z,95691.34
2023-10-20T10:18:10.748Z,95999.69
2023-10-20T10:20:44.400Z,96432.66
2023-10-20T10:23:14.007Z,96912.09
2023-10-20T10:25:43.628Z,96883.06
2023-10-20T10:28:14.925Z,96646.78
2023-10-20T10:30:44.343Z,96439.16
2023-10-20T10:33:13.519Z,96219.16
2023-10-20T10:35:42.252Z,96095.88
2023-10-20T10:38:20.576Z,96084.09
2023-10-20T10:40:49.583Z,95988.91
2023-10-20T10:43:20.720Z,95771.75
2023-10-20T10:45:55.062Z,95641.63
2023-10-20T10:48:29.214Z,95748.78
2023-10-20T10:50:57.493Z,95821.88
2023-10-20T10:53:28.286Z,95975.91
2023-10-20T10:55:56.634Z,96552.53
2023-10-20T10:58:25.791Z,96989.19
2023-10-20T11:00:55.691Z,97179.81
2023-10-20T11:03:26.088Z,97335.44
2023-10-20T11:05:54.482Z,97284.81
2023-10-20T11:08:22.415Z,97029.00
2023-10-20T11:10:50.791Z,97072.75
2023-10-20T11:13:21.698Z,97021.44
2023-10-20T11:15:52.077Z,96761.09
2023-10-20T11:18:21.795Z,96478.69
2023-10-20T11:20:50.618Z,96139.78
2023-10-20T11:23:29.306Z,96002.72
2023-10-20T11:25:58.306Z,95864.56
2023-10-20T11:28:26.248Z,95614.44
2023-10-20T11:30:55.559Z,95540.44
2023-10-20T11:33:23.534Z,95489.53
2023-10-20T11:35:53.293Z,95479.41
2023-10-20T11:38:21.108Z,95440.91
2023-10-20T11:40:50.827Z,95452.25
2023-10-20T11:43:18.886Z,95401.22
2023-10-20T11:45:46.831Z,95395.34
2023-10-20T11:48:16.124Z,95398.38
2023-10-20T11:50:44.232Z,95413.16
2023-10-20T11:53:13.434Z,95417.41
2023-10-20T11:55:41.470Z,95388.25
2023-10-20T11:58:10.153Z,95384.19
2023-10-20T12:00:42.559Z,95341.25
2023-10-20T12:03:10.676Z,95333.97
2023-10-20T12:05:41.057Z,95257.84
2023-10-20T12:08:09.018Z,95282.97
2023-10-20T12:10:37.264Z,95267.97
2023-10-20T12:13:05.603Z,95271.19
2023-10-20T12:15:33.404Z,95282.34
2023-10-20T12:18:02.032Z,95307.25
2023-10-20T12:20:31.642Z,95333.34
2023-10-20T12:23:01.061Z,95386.44
2023-10-20T12:25:28.919Z,95449.44
2023-10-20T12:27:56.717Z,95479.81
2023-10-20T12:30:24.526Z,95540.44
2023-10-20T12:32:52.376Z,95546.94
2023-10-20T12:35:20.499Z,95589.50
2023-10-20T12:37:48.348Z,95678.56
2023-10-20T12:40:17.780Z,95755.28
2023-10-20T12:42:45.527Z,95921.22
2023-10-20T12:45:13.547Z,95985.88
2023-10-20T12:47:41.475Z,95954.38
2023-10-20T12:50:11.077Z,95978.34
2023-10-20T12:52:38.866Z,96136.94
2023-10-20T12:55:07.812Z,96136.56
2023-10-20T12:57:36.898Z,96235.47
2023-10-20T13:00:06.150Z,96128.41
2023-10-20T13:02:35.112Z,96054.97
2023-10-20T13:05:03.683Z,96034.44
2023-10-20T13:07:31.523Z,96017.38
2023-10-20T13:09:59.281Z,95918.59
2023-10-20T13:12:27.493Z,95886.50
2023-10-20T13:14:57.697Z,95790.03
2023-10-20T13:17:25.611Z,95704.13
2023-10-20T13:19:53.972Z,95669.41
2023-10-20T13:22:22.161Z,95642.03
2023-10-20T13:24:50.065Z,95587.88
2023-10-20T13:27:18.961Z,95586.84
2023-10-20T13:29:46.919Z,95568.81
2023-10-20T13:32:16.109Z,95543.28
2023-10-20T13:34:43.908Z,95489.13
2023-10-20T13:37:11.740Z,95486.69
2023-10-20T13:39:39.829Z,95450.22
2023-10-20T13:42:07.936Z,95438.91
2023-10-20T13:44:35.830Z,95444.97
2023-10-20T13:47:04.110Z,95428.75
2023-10-20T13:49:33.593Z,95429.16
2023-10-20T13:52:02.269Z,95391.50
2023-10-20T13:54:30.098Z,95399.19
2023-10-20T13:56:57.930Z,95392.72
2023-10-20T13:59:25.929Z,95393.13
2023-10-20T14:01:53.943Z,95383.59
2023-10-20T14:04:24.674Z,95378.91
2023-10-20T14:06:54.071Z,95341.47
2023-10-20T14:09:23.084Z,95332.94
2023-10-20T14:11:51.601Z,95308.06
2023-10-20T14:14:19.554Z,95327.69
2023-10-20T14:16:47.363Z,95352.59
2023-10-20T14:19:15.603Z,95304.81
2023-10-20T14:21:43.360Z,95306.44
2023-10-20T14:24:12.922Z,95289.44
2023-10-20T14:26:40.699Z,95255.41
2023-10-20T14:29:08.666Z,95250.56
2023-10-20T14:31:37.241Z,95259.06
2023-10-20T14:34:05.339Z,95234.38
2023-10-20T14:36:34.155Z,95211.31
2023-10-20T14:39:02.488Z,95186.81
2023-10-20T14:41:31.714Z,95168.63
2023-10-20T14:43:59.502Z,95169.22
2023-10-20T14:46:27.627Z,95133.22
2023-10-20T14:48:55.414Z,95145.34
2023-10-20T14:51:23.148Z,95146.34
2023-10-20T14:53:51.227Z,95117.22
2023-10-20T14:56:18.996Z,95104.50
2023-10-20T14:59:14.897Z,95085.91
2023-10-20T15:01:42.850Z,95056.19
2023-10-20T15:04:26.662Z,95056.59
2023-10-20T15:06:57.770Z,95036.97
2023-10-20T15:09:25.780Z,95007.25
2023-10-20T15:11:53.743Z,94996.16
2023-10-20T15:14:23.188Z,94980.19
2023-10-20T15:16:50.935Z,94948.88
2023-10-20T15:19:18.753Z,94909.28
2023-10-20T15:21:46.554Z,94865.25
2023-10-20T15:24:15.532Z,94822.06
2023-10-20T15:26:45.840Z,94752.63
2023-10-20T15:29:13.661Z,94727.19
2023-10-20T15:31:43.094Z,94721.75
2023-10-20T15:34:10.904Z,94700.97
2023-10-20T15:36:47.500Z,94691.69
2023-10-20T15:39:15.635Z,94692.69
2023-10-20T15:41:43.522Z,94696.91
2023-10-20T15:44:11.728Z,94675.16
2023-10-20T15:46:40.503Z,94626.75
2023-10-20T15:49:10.025Z,94590.44
2023-10-20T15:51:37.789Z,94568.69
2023-10-20T15:54:05.608Z,94571.91
2023-10-20T15:56:33.406Z,94545.91
2023-10-20T15:59:01.186Z,94546.31
2023-10-20T16:01:29.690Z,94550.75
2023-10-20T16:03:57.723Z,94549.94
2023-10-20T16:06:26.881Z,94570.91
2023-10-20T16:08:55.323Z,94576.75
2023-10-20T16:11:23.161Z,94570.91
2023-10-20T16:13:50.880Z,94578.75
2023-10-20T16:16:24.588Z,94586.22
2023-10-20T16:18:52.610Z,94579.97
2023-10-20T16:21:20.566Z,94590.88
2023-10-20T16:23:49.726Z,94595.31
2023-10-20T16:26:17.599Z,94593.69
2023-10-20T16:28:45.430Z,94572.72
2023-10-20T16:31:13.188Z,94554.56
2023-10-20T16:33:41.049Z,94551.34
2023-10-20T16:36:08.952Z,94559.00
2023-10-20T16:38:36.748Z,94552.97
2023-10-20T16:41:06.083Z,94566.66
2023-10-20T16:43:33.867Z,94575.72
2023-10-20T16:46:05.213Z,94583.41
2023-10-20T16:48:34.713Z,94602.16
2023-10-20T16:51:03.166Z,94597.34
2023-10-20T16:53:31.208Z,94609.03
2023-10-20T16:56:00.405Z,94622.13
2023-10-20T16:58:29.872Z,94641.06
2023-10-20T17:01:02.470Z,94637.63
2023-10-20T17:03:30.417Z,94629.97
2023-10-20T17:05:58.406Z,94643.28
2023-10-20T17:08:28.041Z,94647.72
2023-10-20T17:10:56.359Z,94650.13
2023-10-20T17:13:25.535Z,94621.50
2023-10-20T17:15:54.762Z,94629.97
2023-10-20T17:18:22.763Z,94642.47
2023-10-20T17:20:52.763Z,94645.09
2023-10-20T17:23:20.567Z,94639.66
2023-10-20T17:25:49.187Z,94637.44
2023-10-20T17:28:16.904Z,94616.88
2023-10-20T17:30:44.849Z,94629.16
2023-10-20T17:33:14.101Z,94632.41
2023-10-20T17:35:42.032Z,94640.66
2023-10-20T17:38:10.488Z,94632.41
2023-10-20T17:40:38.309Z,94635.81
2023-10-20T17:43:06.205Z,94634.00
2023-10-20T17:45:34.005Z,94654.16
2023-10-20T17:48:02.689Z,94631.38
2023-10-20T17:50:37.059Z,94637.22
2023-10-20T17:53:05.651Z,94618.69
2023-10-20T17:55:33.629Z,94620.72
2023-10-20T17:58:01.440Z,94608.59
2023-10-20T18:00:29.563Z,94620.50
2023-10-20T18:02:58.395Z,94630.56
2023-10-20T18:05:30.603Z,94636.63
2023-10-20T18:08:00.216Z,94624.53
2023-10-20T18:10:28.787Z,94654.16
2023-10-20T18:12:57.765Z,94660.81
2023-10-20T18:15:25.983Z,94657.00
2023-10-20T18:17:53.838Z,94669.50
2023-10-20T18:20:21.620Z,94675.34
2023-10-20T18:22:49.468Z,94694.72
2023-10-20T18:25:18.698Z,94684.44
2023-10-20T18:27:46.917Z,94696.53
2023-10-20T18:30:15.677Z,94693.91
2023-10-20T18:32:44.245Z,94702.97
2023-10-20T18:35:12.390Z,94715.91
2023-10-20T18:37:40.586Z,94732.63
2023-10-20T18:40:09.808Z,94770.16
2023-10-20T18:42:39.214Z,94774.19
2023-10-20T18:45:08.137Z,94787.72
2023-10-20T18:47:36.434Z,94792.75
2023-10-20T18:50:04.406Z,94804.50
2023-10-20T18:52:32.258Z,94824.28
2023-10-20T18:55:00.027Z,94839.19
2023-10-20T18:57:27.750Z,94874.72
2023-10-20T18:59:56.977Z,94879.56
2023-10-20T19:02:24.936Z,94900.19
2023-10-20T19:04:52.842Z,94909.47
2023-10-20T19:07:20.671Z,94915.34
2023-10-20T19:09:48.487Z,94928.28
2023-10-20T19:12:16.342Z,94922.00
2023-10-20T19:14:44.188Z,94932.31
2023-10-20T19:17:13.301Z,94935.75
2023-10-20T19:19:42.953Z,94934.72
2023-10-20T19:22:11.362Z,94934.94
2023-10-20T19:24:39.093Z,94944.03
2023-10-20T19:27:07.119Z,94940.59
2023-10-20T19:29:35.690Z,94951.91
2023-10-20T19:32:04.673Z,94960.38
2023-10-20T19:34:33.883Z,94949.88
2023-10-20T19:37:01.649Z,94954.13
2023-10-20T19:39:30.812Z,94958.38
2023-10-20T19:41:58.749Z,94958.56
2023-10-20T19:44:26.565Z,94974.72
2023-10-20T19:46:54.934Z,94977.16
2023-10-20T19:49:22.809Z,94968.66
2023-10-20T19:51:51.925Z,94964.41
2023-10-20T19:54:19.915Z,94976.94
2023-10-20T19:56:47.726Z,94977.75
2023-10-20T19:59:15.552Z,94985.63
2023-10-20T20:01:43.405Z,94989.88
2023-10-20T20:04:11.347Z,94991.69
2023-10-20T20:06:39.592Z,95004.22
2023-10-20T20:09:08.846Z,95000.59
2023-10-20T20:11:36.663Z,94997.75
2023-10-20T20:14:04.724Z,95011.09
2023-10-20T20:16:32.503Z,95008.25
2023-10-20T20:19:00.288Z,95009.06
2023-10-20T20:21:28.099Z,94987.66
2023-10-20T20:23:55.886Z,95001.38
2023-10-20T20:26:25.019Z,95005.63
2023-10-20T20:28:52.811Z,95008.47
2023-10-20T20:31:20.722Z,95007.66
2023-10-20T20:33:48.549Z,95000.59
2023-10-20T20:36:16.394Z,94998.97
2023-10-20T20:38:44.284Z,95005.84
2023-10-20T20:41:12.109Z,95006.44
2023-10-20T20:43:41.232Z,95016.78
2023-10-20T20:46:09.120Z,95020.22
2023-10-20T20:48:37.024Z,95030.53
2023-10-20T20:51:10.012Z,95019.41
2023-10-20T20:53:37.971Z,95019.19
2023-10-20T20:56:07.267Z,95033.75
2023-10-20T20:58:35.019Z,95040.63
2023-10-20T21:01:10.479Z,95035.56
2023-10-20T21:03:44.111Z,95029.50
2023-10-20T21:06:12.593Z,95038.00
2023-10-20T21:08:40.513Z,95037.78
2023-10-20T21:11:09.156Z,95048.91
2023-10-20T21:13:36.961Z,95036.97
2023-10-20T21:16:06.207Z,95051.53
2023-10-20T21:18:35.938Z,95047.91
2023-10-20T21:21:11.461Z,95053.16
2023-10-20T21:23:39.588Z,95061.63
2023-10-20T21:26:07.477Z,95052.94
2023-10-20T21:28:35.234Z,95053.16
2023-10-20T21:31:03.578Z,95059.00
2023-10-20T21:33:31.440Z,95055.56
2023-10-20T21:36:01.374Z,95056.38
2023-10-20T21:38:29.238Z,95070.13
2023-10-20T21:40:59.175Z,95079.44
2023-10-20T21:43:28.544Z,95069.94
2023-10-20T21:45:57.451Z,95076.00
2023-10-20T21:48:25.409Z,95069.13
2023-10-20T21:50:57.382Z,95076.00
2023-10-20T21:53:27.024Z,95068.91
2023-10-20T21:56:01.525Z,95086.69
2023-10-20T21:58:29.735Z,95097.22
2023-10-20T22:00:57.587Z,95094.38
2023-10-20T22:03:26.289Z,95114.19
2023-10-20T22:05:54.298Z,95108.94
2023-10-20T22:08:22.543Z,95098.84
2023-10-20T22:10:52.211Z,95087.09
2023-10-20T22:13:20.433Z,95083.88
2023-10-20T22:15:48.394Z,95072.56
2023-10-20T22:18:16.648Z,95085.09
2023-10-20T22:20:45.475Z,95077.59
2023-10-20T22:23:13.724Z,95073.38
2023-10-20T22:25:41.562Z,95069.72
2023-10-20T22:28:10.696Z,95090.34
2023-10-20T22:30:38.519Z,95091.97
2023-10-20T22:33:06.833Z,95117.63
2023-10-20T22:35:34.957Z,95104.09
2023-10-20T22:38:02.742Z,95101.47
2023-10-20T22:40:30.603Z,95096.41
2023-10-20T22:42:58.352Z,95090.34
2023-10-20T22:45:27.514Z,95058.00
2023-10-20T22:47:55.357Z,95034.16
2023-10-20T22:50:23.218Z,95016.78
2023-10-20T22:52:51.043Z,95003.00
2023-10-20T22:55:18.916Z,94994.53
2023-10-20T22:57:46.699Z,95004.81
2023-10-20T23:00:15.989Z,95013.94
2023-10-20T23:02:45.290Z,95043.84
2023-10-20T23:05:13.120Z,95035.16
2023-10-20T23:07:41.039Z,95023.25
2023-10-20T23:10:09.556Z,95026.06
2023-10-20T23:12:37.561Z,95020.00
2023-10-20T23:15:07.271Z,95027.69
2023-10-20T23:17:35.144Z,95039.63
2023-10-20T23:20:04.699Z,95031.13
2023-10-20T23:22:32.894Z,95046.09
2023-10-20T23:25:00.673Z,95073.38
2023-10-20T23:27:28.489Z,95058.00
2023-10-20T23:29:56.897Z,95063.25
2023-10-20T23:32:25.987Z,95062.25
2023-10-20T23:34:54.582Z,95056.38
2023-10-20T23:37:23.733Z,95066.50
2023-10-20T23:39:51.964Z,95071.75
2023-10-20T23:42:19.806Z,95038.59
2023-10-20T23:44:48.114Z,95019.19
2023-10-20T23:47:16.228Z,95001.38
2023-10-20T23:49:44.252Z,94975.72
2023-10-20T23:52:12.035Z,95000.59
2023-10-20T23:54:41.157Z,94978.34
2023-10-20T23:57:09.094Z,94976.75
2023-10-20T23:59:37.758Z,94975.13
